Time;durP1;ratioP1;P1;durP2;ratioP2;P2;SDS_P1;SDS_P2;PMS_P1;PMS_P2;Temp;Humidity;BMP_temperature;BMP_pressure;BME280_temperature;BME280_humidity;BME280_pressure;Samples;Min_cycle;Max_cycle;Signal;HPM_P1;HPM_P2
2022/03/11 00:01:27;;;;;;;14.48;7.82;;;10.10;59.40;;;;;;5164342;22;20039;-64
2022/03/11 00:03:28;;;;;;;17.58;8.90;;;10.00;57.60;;;;;;5165849;22;20036;-64
2022/03/11 00:05:28;;;;;;;19.42;8.90;;;10.00;57.00;;;;;;5164496;22;20008;-64
2022/03/11 00:07:30;;;;;;;17.27;8.93;;;10.00;56.90;;;;;;5163606;22;20027;-64
2022/03/11 00:09:31;;;;;;;14.95;7.57;;;10.00;57.00;;;;;;5163876;22;20016;-64
2022/03/11 00:11:31;;;;;;;15.55;8.05;;;10.00;57.00;;;;;;5163887;22;20019;-64
2022/03/11 00:13:32;;;;;;;16.15;8.85;;;10.00;57.00;;;;;;5164787;22;20078;-64
2022/03/11 00:15:32;;;;;;;14.50;8.02;;;10.00;56.90;;;;;;5164207;22;20009;-64
2022/03/11 00:17:34;;;;;;;15.60;8.52;;;10.00;57.40;;;;;;5164646;22;21473;-64
2022/03/11 00:19:34;;;;;;;15.05;8.30;;;10.00;57.10;;;;;;5165038;22;20108;-65
2022/03/11 00:21:35;;;;;;;14.85;7.65;;;10.00;56.90;;;;;;5163322;22;20012;-64
2022/03/11 00:23:36;;;;;;;15.00;8.77;;;10.00;57.00;;;;;;5164917;22;20013;-65
2022/03/11 00:25:37;;;;;;;13.80;8.00;;;10.10;57.40;;;;;;5163939;22;20012;-64
2022/03/11 00:27:37;;;;;;;12.70;7.53;;;10.00;56.90;;;;;;5161982;23;20008;-65
2022/03/11 00:29:38;;;;;;;14.15;7.82;;;10.00;56.80;;;;;;5164342;22;20079;-64
2022/03/11 00:31:38;;;;;;;12.40;7.13;;;10.00;56.70;;;;;;5162979;22;20385;-64
2022/03/11 00:33:39;;;;;;;13.48;7.78;;;10.00;56.90;;;;;;5164314;22;20005;-64
2022/03/11 00:35:40;;;;;;;12.82;7.70;;;10.00;56.80;;;;;;5163066;22;20083;-64
2022/03/11 00:37:41;;;;;;;12.80;7.35;;;10.00;56.70;;;;;;5163486;22;20004;-67
2022/03/11 00:39:42;;;;;;;12.45;7.82;;;10.00;56.70;;;;;;5163730;22;20061;-65
2022/03/11 00:41:42;;;;;;;12.15;7.38;;;10.00;56.50;;;;;;5161770;23;20059;-65
2022/03/11 00:43:43;;;;;;;13.38;7.57;;;10.00;56.70;;;;;;5164078;22;20459;-65
2022/03/11 00:45:44;;;;;;;12.55;7.20;;;10.00;56.60;;;;;;5163347;22;20004;-65
2022/03/11 00:47:44;;;;;;;13.65;7.60;;;10.00;56.50;;;;;;5163814;22;20000;-66
2022/03/11 00:49:45;;;;;;;13.73;7.88;;;9.90;56.20;;;;;;5164503;22;20139;-66
2022/03/11 00:51:46;;;;;;;12.90;7.65;;;9.90;56.30;;;;;;5163607;22;20083;-65
2022/03/11 00:53:46;;;;;;;12.75;7.57;;;9.90;56.10;;;;;;5163955;22;20050;-66
2022/03/11 00:55:47;;;;;;;12.90;7.30;;;9.90;56.20;;;;;;5163711;22;20448;-66
2022/03/11 00:57:47;;;;;;;10.93;7.13;;;10.00;56.50;;;;;;5164351;22;20448;-65
2022/03/11 00:59:48;;;;;;;12.32;7.50;;;9.90;57.00;;;;;;5163772;22;20327;-66
2022/03/11 01:01:48;;;;;;;14.10;7.55;;;9.90;56.50;;;;;;5160142;23;20043;-66
2022/03/11 01:03:49;;;;;;;11.55;7.32;;;9.90;56.10;;;;;;5163878;22;20016;-66
2022/03/11 01:05:50;;;;;;;12.23;7.38;;;9.90;56.00;;;;;;5163192;22;20010;-66
2022/03/11 01:07:51;;;;;;;14.25;6.95;;;9.90;56.70;;;;;;5163639;22;20004;-66
2022/03/11 01:09:52;;;;;;;12.25;7.68;;;9.90;56.10;;;;;;5163788;22;20004;-65
2022/03/11 01:11:53;;;;;;;12.90;7.15;;;9.90;56.20;;;;;;5163054;22;20027;-65
2022/03/11 01:13:54;;;;;;;12.80;7.28;;;9.90;56.00;;;;;;5164064;22;20008;-65
2022/03/11 01:15:54;;;;;;;11.32;6.93;;;9.90;56.60;;;;;;5163011;22;20857;-65
2022/03/11 01:17:55;;;;;;;10.55;6.68;;;9.90;56.50;;;;;;5163371;22;20008;-65
2022/03/11 01:19:56;;;;;;;11.73;6.32;;;9.90;57.00;;;;;;5163072;22;20100;-66
2022/03/11 01:21:57;;;;;;;11.50;6.88;;;9.90;56.30;;;;;;5162539;22;20062;-65
2022/03/11 01:23:58;;;;;;;12.93;6.72;;;9.90;56.80;;;;;;5161948;23;20026;-65
2022/03/11 01:25:58;;;;;;;12.32;6.95;;;9.90;56.30;;;;;;5163761;22;20004;-65
2022/03/11 01:27:59;;;;;;;13.25;7.13;;;9.80;56.10;;;;;;5164720;22;20040;-66
2022/03/11 01:29:59;;;;;;;14.55;7.72;;;9.80;56.20;;;;;;5164293;22;20007;-65
2022/03/11 01:32:00;;;;;;;12.77;7.53;;;9.80;57.30;;;;;;5163315;22;20055;-65
2022/03/11 01:34:01;;;;;;;11.57;6.93;;;9.80;57.60;;;;;;5164479;22;20008;-65
2022/03/11 01:36:01;;;;;;;11.07;6.65;;;9.70;56.50;;;;;;5163955;22;20012;-65
2022/03/11 01:38:02;;;;;;;13.43;6.93;;;9.80;57.00;;;;;;5163854;22;20016;-65
2022/03/11 01:40:04;;;;;;;10.75;6.68;;;9.70;56.50;;;;;;5164348;22;19997;-66
2022/03/11 01:42:06;;;;;;;13.77;6.85;;;9.70;56.90;;;;;;5164016;22;20012;-65
2022/03/11 01:44:08;;;;;;;14.13;7.15;;;9.70;56.70;;;;;;5164137;22;20329;-65
2022/03/11 01:46:09;;;;;;;;;;;9.70;56.90;;;;;;5163968;22;20079;-65
2022/03/11 01:48:10;;;;;;;13.63;7.15;;;9.70;59.50;;;;;;5163254;22;20311;-65
2022/03/11 01:50:11;;;;;;;12.90;7.32;;;9.60;57.00;;;;;;5162366;22;20016;-67
2022/03/11 01:52:12;;;;;;;14.10;7.80;;;9.60;56.90;;;;;;5162910;22;20026;-65
2022/03/11 01:54:14;;;;;;;12.43;7.10;;;9.60;57.20;;;;;;5163504;22;20058;-65
2022/03/11 01:56:14;;;;;;;12.13;7.18;;;9.50;57.10;;;;;;5162644;22;20416;-65
2022/03/11 01:58:15;;;;;;;11.27;6.72;;;9.50;57.20;;;;;;5163302;22;20020;-65
2022/03/11 02:00:17;;;;;;;12.50;6.78;;;9.50;57.20;;;;;;5160758;22;20016;-65
2022/03/11 02:02:17;;;;;;;12.82;6.68;;;9.50;57.40;;;;;;5164555;22;20012;-65
2022/03/11 02:04:18;;;;;;;10.40;6.70;;;9.50;58.50;;;;;;5163881;22;20134;-66
2022/03/11 02:06:19;;;;;;;15.00;7.45;;;9.50;58.00;;;;;;5163300;22;20012;-66
2022/03/11 02:08:20;;;;;;;11.07;6.85;;;9.40;57.30;;;;;;5164791;22;20375;-66
2022/03/11 02:10:21;;;;;;;14.65;7.80;;;9.40;57.40;;;;;;5164168;22;20320;-66
2022/03/11 02:12:33;;;;;;;11.77;7.25;;;9.30;57.40;;;;;;5165529;22;20008;-66
2022/03/11 02:14:33;;;;;;;12.93;7.15;;;9.30;57.70;;;;;;5151642;23;20012;-65
2022/03/11 02:16:39;;;;;;;13.70;6.90;;;9.30;57.80;;;;;;5141917;22;20503;-65
2022/03/11 02:18:40;;;;;;;12.40;7.00;;;9.30;57.90;;;;;;5140139;22;20037;-65
2022/03/11 02:20:41;;;;;;;11.57;7.10;;;9.30;58.00;;;;;;5139689;22;20063;-65
2022/03/11 02:22:44;;;;;;;14.00;7.65;;;9.20;58.00;;;;;;5140056;22;20313;-65
2022/03/11 02:24:45;;;;;;;14.52;7.32;;;9.30;58.20;;;;;;5139615;22;20091;-65
2022/03/11 02:26:45;;;;;;;11.85;7.22;;;9.20;58.30;;;;;;5164115;22;20012;-67
2022/03/11 02:28:48;;;;;;;11.27;6.60;;;9.20;58.30;;;;;;5165286;22;20058;-66
2022/03/11 02:30:48;;;;;;;13.63;7.30;;;9.30;58.30;;;;;;5164659;22;20020;-65
2022/03/11 02:32:49;;;;;;;12.30;7.70;;;9.20;58.30;;;;;;5165307;22;20008;-65
2022/03/11 02:34:50;;;;;;;14.50;7.78;;;9.10;58.40;;;;;;5165492;22;20015;-65
2022/03/11 02:36:51;;;;;;;12.55;7.20;;;9.20;58.60;;;;;;5163989;22;20000;-65
2022/03/11 02:38:52;;;;;;;11.73;7.22;;;9.20;58.50;;;;;;5165307;22;20012;-65
2022/03/11 02:40:53;;;;;;;14.23;7.57;;;9.20;58.80;;;;;;5164124;22;20088;-65
2022/03/11 02:42:53;;;;;;;12.98;7.45;;;9.20;58.60;;;;;;5164936;22;20019;-65
2022/03/11 02:44:54;;;;;;;10.98;7.07;;;9.20;58.80;;;;;;5164806;22;20005;-64
2022/03/11 02:46:55;;;;;;;11.07;7.03;;;9.20;58.80;;;;;;5163733;22;20452;-65
2022/03/11 02:48:56;;;;;;;11.40;7.13;;;9.20;58.90;;;;;;5163175;22;20004;-66
2022/03/11 02:50:57;;;;;;;14.82;7.30;;;9.20;59.00;;;;;;5164572;22;20009;-65
2022/03/11 02:52:57;;;;;;;12.10;7.00;;;9.20;59.30;;;;;;5165115;22;20028;-65
2022/03/11 02:54:58;;;;;;;14.40;7.82;;;9.10;59.10;;;;;;5165140;22;20012;-65
2022/03/11 02:56:58;;;;;;;14.45;7.65;;;9.20;59.40;;;;;;5163333;22;20046;-65
2022/03/11 02:58:59;;;;;;;12.25;7.85;;;9.10;59.40;;;;;;5165395;22;20004;-65
2022/03/11 03:01:03;;;;;;;13.95;7.13;;;9.10;59.50;;;;;;5164483;22;20078;-65
2022/03/11 03:03:05;;;;;;;16.25;7.97;;;9.10;59.60;;;;;;5164518;22;20011;-65
2022/03/11 03:05:06;;;;;;;12.73;8.18;;;9.10;59.90;;;;;;5164817;22;20379;-65
2022/03/11 03:07:07;;;;;;;14.02;8.40;;;9.00;60.00;;;;;;5164787;22;20023;-65
2022/03/11 03:09:08;;;;;;;15.68;7.57;;;9.00;60.20;;;;;;5188089;22;20004;-65
2022/03/11 03:11:08;;;;;;;13.02;7.75;;;9.00;60.30;;;;;;5164211;22;20054;-64
2022/03/11 03:13:09;;;;;;;12.35;7.65;;;9.00;60.40;;;;;;5164983;22;20035;-66
2022/03/11 03:15:09;;;;;;;13.40;7.72;;;9.00;60.50;;;;;;5164537;22;20081;-65
2022/03/11 03:17:10;;;;;;;15.98;7.10;;;8.90;60.60;;;;;;5164868;22;20004;-64
2022/03/11 03:19:11;;;;;;;15.63;7.63;;;9.00;60.80;;;;;;5163072;22;20083;-65
2022/03/11 03:21:11;;;;;;;14.27;8.10;;;9.00;60.80;;;;;;5162823;22;20012;-65
2022/03/11 03:23:12;;;;;;;15.30;7.75;;;8.90;60.80;;;;;;5164642;22;20428;-65
2022/03/11 03:25:13;;;;;;;13.60;7.72;;;9.00;61.20;;;;;;5163830;22;20071;-65
2022/03/11 03:27:14;;;;;;;12.27;7.53;;;8.90;61.30;;;;;;5164632;22;20357;-65
2022/03/11 03:29:14;;;;;;;15.65;8.82;;;8.90;61.50;;;;;;5164118;22;20473;-65
2022/03/11 03:31:18;;;;;;;14.95;7.75;;;8.80;61.60;;;;;;5163455;22;20019;-65
2022/03/11 03:33:19;;;;;;;12.70;7.30;;;8.90;61.80;;;;;;5162247;22;20080;-65
2022/03/11 03:35:20;;;;;;;15.57;7.82;;;8.70;61.90;;;;;;5164366;22;20016;-64
2022/03/11 03:37:20;;;;;;;13.30;7.50;;;8.80;62.00;;;;;;5164971;22;20035;-65
2022/03/11 03:39:21;;;;;;;13.85;7.72;;;8.80;62.20;;;;;;5164884;22;20017;-65
2022/03/11 03:41:21;;;;;;;18.58;8.23;;;8.70;62.40;;;;;;5163102;22;20016;-65
2022/03/11 03:43:22;;;;;;;12.50;7.03;;;8.70;62.50;;;;;;5163082;22;20008;-65
2022/03/11 03:45:22;;;;;;;13.32;7.70;;;8.70;62.40;;;;;;5162454;22;20019;-65
2022/03/11 03:47:23;;;;;;;12.48;7.68;;;8.70;62.40;;;;;;5164159;22;20008;-65
2022/03/11 03:49:25;;;;;;;13.13;8.15;;;8.70;62.70;;;;;;5164304;22;20015;-64
2022/03/11 03:51:25;;;;;;;12.60;7.68;;;8.70;62.70;;;;;;5161129;23;20122;-65
2022/03/11 03:53:26;;;;;;;13.65;7.90;;;8.60;63.10;;;;;;5163910;22;20392;-65
2022/03/11 03:55:27;;;;;;;16.85;7.90;;;8.60;63.00;;;;;;5163579;22;20465;-65
2022/03/11 03:57:27;;;;;;;15.55;7.90;;;8.60;63.10;;;;;;5163830;22;20379;-64
2022/03/11 03:59:28;;;;;;;11.77;7.30;;;8.60;63.40;;;;;;5164259;22;20012;-65
2022/03/11 04:01:28;;;;;;;15.70;8.32;;;8.60;63.50;;;;;;5163048;22;20024;-65
2022/03/11 04:03:29;;;;;;;17.33;8.27;;;8.50;63.60;;;;;;5138637;22;20337;-65
2022/03/11 04:05:30;;;;;;;13.80;8.18;;;8.50;63.60;;;;;;5139066;22;20013;-66
2022/03/11 04:07:30;;;;;;;13.85;7.95;;;8.50;64.00;;;;;;5140306;22;20036;-65
2022/03/11 04:09:31;;;;;;;12.05;8.02;;;8.50;64.20;;;;;;5140385;22;20091;-64
2022/03/11 04:11:32;;;;;;;17.08;8.52;;;8.50;64.20;;;;;;5139087;22;20025;-65
2022/03/11 04:13:33;;;;;;;13.43;7.65;;;8.50;63.90;;;;;;5140216;22;20005;-65
2022/03/11 04:15:33;;;;;;;22.42;8.48;;;8.50;64.00;;;;;;5138124;22;20009;-65
2022/03/11 04:17:34;;;;;;;14.02;7.72;;;8.50;64.10;;;;;;5140037;22;20032;-65
2022/03/11 04:19:34;;;;;;;13.70;8.15;;;8.50;64.40;;;;;;5139871;22;20004;-64
2022/03/11 04:21:35;;;;;;;17.17;8.93;;;8.50;64.50;;;;;;5139092;22;20024;-65
2022/03/11 04:23:35;;;;;;;17.35;8.45;;;8.50;65.00;;;;;;5139593;22;20017;-65
2022/03/11 04:25:36;;;;;;;13.45;8.05;;;8.50;64.60;;;;;;5139146;22;20072;-65
2022/03/11 04:27:37;;;;;;;14.90;8.40;;;8.40;64.60;;;;;;5138768;22;20147;-65
2022/03/11 04:29:37;;;;;;;14.80;8.70;;;8.40;64.80;;;;;;5139473;22;20468;-65
2022/03/11 04:31:38;;;;;;;15.00;8.48;;;8.40;65.00;;;;;;5138542;22;20028;-65
2022/03/11 04:33:41;;;;;;;15.02;8.70;;;8.30;65.00;;;;;;5139546;22;20357;-64
2022/03/11 04:35:41;;;;;;;;;;;8.30;65.20;;;;;;5138755;22;20413;-65
2022/03/11 04:37:42;;;;;;;14.45;8.02;;;8.10;65.40;;;;;;5138994;22;19945;-65
2022/03/11 04:39:43;;;;;;;15.60;9.43;;;8.10;65.90;;;;;;5139362;22;20371;-65
2022/03/11 04:41:44;;;;;;;18.23;8.70;;;8.10;65.90;;;;;;5138466;22;20092;-65
2022/03/11 04:43:45;;;;;;;19.98;9.45;;;8.10;65.80;;;;;;5138928;22;20009;-65
2022/03/11 04:45:45;;;;;;;17.63;9.27;;;8.10;65.90;;;;;;5137252;23;20476;-65
2022/03/11 04:47:46;;;;;;;15.30;8.32;;;8.00;65.90;;;;;;5138572;22;20012;-65
2022/03/11 04:49:47;;;;;;;19.77;8.82;;;8.00;66.20;;;;;;5139129;23;20019;-65
2022/03/11 04:51:47;;;;;;;17.13;8.48;;;7.90;66.20;;;;;;5137648;22;20071;-65
2022/03/11 04:53:51;;;;;;;17.60;8.93;;;8.00;66.20;;;;;;5138243;23;20016;-66
2022/03/11 04:55:51;;;;;;;14.40;8.13;;;7.90;66.90;;;;;;5138533;23;20008;-65
2022/03/11 04:57:52;;;;;;;15.85;8.40;;;8.00;66.50;;;;;;5139015;23;20084;-65
2022/03/11 04:59:52;;;;;;;16.88;8.85;;;7.90;66.40;;;;;;5138975;23;20058;-65
2022/03/11 05:01:53;;;;;;;20.58;9.18;;;7.90;66.20;;;;;;5156597;22;20336;-65
2022/03/11 05:03:53;;;;;;;16.92;9.15;;;7.90;66.30;;;;;;5163488;22;20000;-65
2022/03/11 05:05:54;;;;;;;16.52;8.98;;;7.90;66.50;;;;;;5162947;22;20012;-65
2022/03/11 05:07:55;;;;;;;17.08;8.70;;;7.80;66.30;;;;;;5163734;22;20125;-65
2022/03/11 05:09:55;;;;;;;17.83;9.48;;;7.90;66.60;;;;;;5163389;22;20008;-65
2022/03/11 05:11:56;;;;;;;17.23;9.18;;;7.90;66.60;;;;;;5162783;22;20428;-65
2022/03/11 05:13:56;;;;;;;16.55;8.55;;;7.80;66.20;;;;;;5163285;22;20617;-65
2022/03/11 05:15:57;;;;;;;15.75;9.25;;;7.80;66.60;;;;;;5162750;22;20447;-65
2022/03/11 05:17:57;;;;;;;18.13;9.35;;;7.80;66.70;;;;;;5163683;22;20327;-65
2022/03/11 05:19:58;;;;;;;15.10;8.63;;;7.80;66.90;;;;;;5162863;22;20012;-65
2022/03/11 05:21:58;;;;;;;16.77;9.65;;;7.80;67.30;;;;;;5159301;22;20388;-65
2022/03/11 05:23:59;;;;;;;19.95;9.75;;;7.70;67.00;;;;;;5160512;22;20058;-65
2022/03/11 05:26:02;;;;;;;17.48;9.18;;;7.80;68.50;;;;;;5123891;23;20008;-65
2022/03/11 05:28:03;;;;;;;23.02;10.20;;;7.80;67.00;;;;;;5128764;23;20472;-65
2022/03/11 05:30:08;;;;;;;17.27;9.30;;;7.80;67.60;;;;;;5159566;23;20046;-66
2022/03/11 05:32:10;;;;;;;15.45;8.88;;;7.70;68.00;;;;;;5161308;23;20150;-65
2022/03/11 05:34:10;;;;;;;19.43;10.27;;;7.80;68.60;;;;;;5161474;23;20016;-65
2022/03/11 05:36:11;;;;;;;18.95;10.27;;;7.70;67.90;;;;;;5160413;23;20243;-65
2022/03/11 05:38:11;;;;;;;15.77;9.18;;;7.70;67.30;;;;;;5160458;23;20016;-65
2022/03/11 05:40:12;;;;;;;16.20;9.63;;;7.70;68.20;;;;;;5160664;23;20012;-65
2022/03/11 05:42:13;;;;;;;19.23;10.52;;;7.70;68.90;;;;;;5161596;23;20012;-65
2022/03/11 05:44:16;;;;;;;17.27;9.38;;;7.70;68.20;;;;;;5163625;23;20008;-65
2022/03/11 05:46:17;;;;;;;17.63;9.88;;;7.70;68.60;;;;;;5161992;23;20008;-66
2022/03/11 05:48:17;;;;;;;17.95;10.55;;;7.60;68.10;;;;;;5162257;23;20433;-65
2022/03/11 05:50:18;;;;;;;18.27;10.02;;;7.50;67.90;;;;;;5162422;23;20024;-65
2022/03/11 05:52:18;;;;;;;19.83;11.27;;;7.50;68.20;;;;;;5162306;23;20012;-66
2022/03/11 05:54:19;;;;;;;21.50;10.75;;;7.40;68.30;;;;;;5164359;23;20016;-65
2022/03/11 05:56:20;;;;;;;19.67;10.73;;;7.40;68.50;;;;;;5162586;23;20023;-65
2022/03/11 05:58:21;;;;;;;20.08;10.82;;;7.40;68.70;;;;;;5162527;23;20268;-64
2022/03/11 06:00:22;;;;;;;22.40;9.82;;;7.40;68.80;;;;;;5161776;22;20113;-65
2022/03/11 06:02:22;;;;;;;26.73;11.18;;;7.40;68.90;;;;;;5163256;22;20032;-65
2022/03/11 06:04:23;;;;;;;19.38;9.93;;;7.40;69.20;;;;;;5162191;22;20012;-65
2022/03/11 06:06:24;;;;;;;20.85;10.82;;;7.40;68.90;;;;;;5134532;23;20009;-65
2022/03/11 06:08:24;;;;;;;17.85;10.35;;;7.40;69.10;;;;;;5163907;22;20043;-65
2022/03/11 06:10:25;;;;;;;17.63;10.80;;;7.30;69.30;;;;;;5161739;22;20020;-65
2022/03/11 06:12:26;;;;;;;20.25;10.63;;;7.40;69.30;;;;;;5163614;22;20083;-65
2022/03/11 06:14:26;;;;;;;18.48;11.10;;;7.40;70.30;;;;;;5163666;22;20009;-65
2022/03/11 06:16:27;;;;;;;20.70;11.15;;;7.30;69.30;;;;;;5162491;22;20436;-64
2022/03/11 06:18:28;;;;;;;19.23;11.23;;;7.40;70.60;;;;;;5163564;22;20012;-64
2022/03/11 06:20:30;;;;;;;19.27;10.07;;;7.30;69.60;;;;;;5161854;22;20130;-64
2022/03/11 06:22:31;;;;;;;;;;;7.30;69.70;;;;;;5162576;22;20012;-65
2022/03/11 06:24:32;;;;;;;18.10;10.38;;;7.30;71.60;;;;;;5162799;22;19990;-65
2022/03/11 06:26:32;;;;;;;21.17;11.25;;;7.30;70.60;;;;;;5163183;22;20019;-65
2022/03/11 06:28:33;;;;;;;18.95;10.35;;;7.40;71.40;;;;;;5164309;22;20015;-64
2022/03/11 06:30:33;;;;;;;21.38;11.88;;;7.30;70.10;;;;;;5162220;22;20048;-64
2022/03/11 06:32:45;;;;;;;23.98;12.13;;;7.30;70.00;;;;;;5162974;22;20027;-64
2022/03/11 06:34:48;;;;;;;20.33;11.50;;;7.30;70.00;;;;;;5157052;22;20004;-64
2022/03/11 06:36:48;;;;;;;19.55;11.15;;;7.40;71.30;;;;;;5162019;22;20005;-64
2022/03/11 06:38:49;;;;;;;25.88;11.82;;;7.30;70.30;;;;;;5162750;22;20015;-65
2022/03/11 06:40:50;;;;;;;22.85;12.50;;;7.30;70.30;;;;;;5162971;22;20020;-64
2022/03/11 06:42:51;;;;;;;23.08;12.45;;;7.40;71.50;;;;;;5162663;22;20016;-64
2022/03/11 06:44:51;;;;;;;19.83;11.10;;;7.30;70.50;;;;;;5163510;22;20091;-64
2022/03/11 06:46:52;;;;;;;22.33;11.95;;;7.40;70.60;;;;;;5162547;22;20050;-64
2022/03/11 06:48:52;;;;;;;21.05;11.88;;;7.30;71.20;;;;;;5163890;22;20015;-65
2022/03/11 06:50:53;;;;;;;24.73;12.75;;;7.30;70.40;;;;;;5162472;22;20020;-64
2022/03/11 06:52:53;;;;;;;24.70;13.65;;;7.30;70.60;;;;;;5162324;22;20062;-65
2022/03/11 06:54:54;;;;;;;23.23;12.75;;;7.30;70.60;;;;;;5163593;22;20012;-65
2022/03/11 06:56:55;;;;;;;18.60;11.57;;;7.40;70.60;;;;;;5162167;22;20008;-65
2022/03/11 06:58:55;;;;;;;20.98;12.43;;;7.30;71.10;;;;;;5163691;22;20004;-65
2022/03/11 07:00:56;;;;;;;22.27;12.57;;;7.40;70.60;;;;;;5159534;23;20031;-65
2022/03/11 07:02:56;;;;;;;24.85;12.35;;;7.50;71.90;;;;;;5162191;22;20016;-64
2022/03/11 07:04:57;;;;;;;23.45;12.50;;;7.70;71.00;;;;;;5163579;22;20038;-64
2022/03/11 07:06:58;;;;;;;21.13;12.88;;;7.80;69.70;;;;;;5162418;22;20008;-64
2022/03/11 07:08:58;;;;;;;24.85;13.55;;;8.00;69.00;;;;;;5163766;22;20067;-64
2022/03/11 07:10:59;;;;;;;22.42;13.25;;;8.20;69.40;;;;;;5162417;22;20038;-64
2022/03/11 07:13:00;;;;;;;22.15;12.73;;;8.20;67.90;;;;;;5161819;22;20012;-64
2022/03/11 07:15:01;;;;;;;23.55;11.93;;;8.50;68.90;;;;;;5162651;22;20015;-64
2022/03/11 07:17:04;;;;;;;26.10;13.38;;;8.60;67.30;;;;;;5161856;22;20036;-65
2022/03/11 07:19:04;;;;;;;24.23;13.65;;;8.80;66.90;;;;;;5163941;22;20008;-65
2022/03/11 07:21:05;;;;;;;24.70;13.40;;;8.90;65.80;;;;;;5162707;22;20016;-65
2022/03/11 07:23:05;;;;;;;23.10;13.23;;;9.00;66.40;;;;;;5161509;22;20066;-65
2022/03/11 07:25:06;;;;;;;23.60;13.45;;;9.20;65.50;;;;;;5162367;22;20035;-65
2022/03/11 07:27:07;;;;;;;25.15;14.05;;;9.20;64.70;;;;;;5163217;22;20012;-65
2022/03/11 07:29:08;;;;;;;22.38;12.60;;;9.30;65.00;;;;;;5163209;22;20348;-64
2022/03/11 07:31:10;;;;;;;21.95;12.88;;;9.40;64.70;;;;;;5162135;22;20024;-65
2022/03/11 07:33:12;;;;;;;24.55;13.02;;;9.60;66.50;;;;;;5162105;22;20016;-65
2022/03/11 07:35:13;;;;;;;25.58;14.63;;;9.70;63.60;;;;;;5162028;22;20336;-65
2022/03/11 07:37:13;;;;;;;24.85;13.43;;;9.70;63.30;;;;;;5163023;22;20091;-65
2022/03/11 07:39:14;;;;;;;28.40;14.52;;;9.70;63.20;;;;;;5162942;22;20012;-65
2022/03/11 07:41:15;;;;;;;23.25;14.35;;;9.80;62.80;;;;;;5161708;22;20018;-65
2022/03/11 07:43:16;;;;;;;24.52;13.48;;;9.90;62.20;;;;;;5162477;22;20019;-65
2022/03/11 07:45:16;;;;;;;21.70;13.20;;;10.00;62.40;;;;;;5159581;22;20356;-65
2022/03/11 07:47:17;;;;;;;23.58;13.05;;;10.20;63.20;;;;;;5155919;23;20381;-65
2022/03/11 07:49:18;;;;;;;24.88;13.30;;;10.40;63.30;;;;;;5162693;22;20007;-65
2022/03/11 07:51:19;;;;;;;23.08;13.98;;;10.50;61.90;;;;;;5160076;22;20020;-65
2022/03/11 07:53:20;;;;;;;24.02;13.57;;;10.60;61.20;;;;;;5156686;23;20016;-65
2022/03/11 07:55:22;;;;;;;26.45;13.45;;;10.40;59.90;;;;;;5160388;22;20095;-64
2022/03/11 07:57:22;;;;;;;23.63;14.55;;;10.20;60.10;;;;;;5159809;23;20011;-65
2022/03/11 07:59:23;;;;;;;25.70;14.43;;;10.40;60.40;;;;;;5162870;22;20337;-65
2022/03/11 08:01:23;;;;;;;24.35;13.43;;;10.50;61.40;;;;;;5158576;23;20032;-65
2022/03/11 08:03:24;;;;;;;25.25;15.30;;;10.70;61.10;;;;;;5163116;22;20043;-65
2022/03/11 08:05:25;;;;;;;22.35;13.23;;;10.60;59.70;;;;;;5160850;22;20391;-65
2022/03/11 08:07:25;;;;;;;24.75;14.30;;;10.90;61.60;;;;;;5162156;22;20008;-64
2022/03/11 08:09:28;;;;;;;22.33;14.73;;;11.00;59.30;;;;;;5162813;22;20070;-65
2022/03/11 08:11:29;;;;;;;23.23;14.43;;;11.00;59.30;;;;;;5159229;23;20021;-65
2022/03/11 08:13:30;;;;;;;22.88;13.63;;;10.70;58.70;;;;;;5162189;22;20087;-65
2022/03/11 08:15:30;;;;;;;29.70;15.10;;;11.00;59.20;;;;;;5160283;22;20023;-65
2022/03/11 08:17:31;;;;;;;29.25;14.52;;;10.90;58.40;;;;;;5162165;22;20424;-65
2022/03/11 08:19:31;;;;;;;22.35;13.13;;;10.90;58.60;;;;;;5162103;22;20390;-65
2022/03/11 08:21:32;;;;;;;24.60;15.02;;;11.00;58.50;;;;;;5159422;22;20024;-65
2022/03/11 08:23:33;;;;;;;25.45;13.93;;;10.80;58.20;;;;;;5162035;22;20016;-65
2022/03/11 08:25:34;;;;;;;25.77;14.48;;;10.70;58.60;;;;;;5160743;22;20012;-65
2022/03/11 08:27:35;;;;;;;20.45;13.30;;;10.90;58.50;;;;;;5161619;22;20411;-65
2022/03/11 08:29:36;;;;;;;24.65;13.88;;;10.90;58.40;;;;;;5162919;22;20012;-64
2022/03/11 08:31:36;;;;;;;23.70;13.80;;;10.70;58.30;;;;;;5162057;22;20475;-64
2022/03/11 08:33:39;;;;;;;20.52;13.30;;;10.90;58.80;;;;;;5162750;22;20087;-64
2022/03/11 08:35:40;;;;;;;22.50;13.75;;;10.80;58.40;;;;;;5161650;22;20019;-65
2022/03/11 08:37:41;;;;;;;21.50;13.35;;;10.90;58.70;;;;;;5162398;22;20087;-64
2022/03/11 08:39:42;;;;;;;27.17;13.35;;;10.90;60.30;;;;;;5162923;22;20008;-64
2022/03/11 08:41:43;;;;;;;20.73;13.52;;;11.00;59.40;;;;;;5160926;22;20019;-64
2022/03/11 08:43:49;;;;;;;20.10;13.48;;;10.90;58.40;;;;;;5162451;22;20083;-64
2022/03/11 08:45:50;;;;;;;22.70;14.10;;;11.10;59.20;;;;;;5160999;22;20096;-64
2022/03/11 08:47:53;;;;;;;24.20;14.23;;;11.00;58.20;;;;;;5160993;22;20008;-64
2022/03/11 08:49:54;;;;;;;;;;;10.90;58.30;;;;;;5163089;22;20093;-64
2022/03/11 08:51:54;;;;;;;23.80;13.38;;;10.80;58.30;;;;;;5161112;22;19916;-64
2022/03/11 08:53:55;;;;;;;22.65;13.00;;;10.60;58.30;;;;;;5162223;22;20051;-63
2022/03/11 08:55:55;;;;;;;23.77;13.18;;;10.70;59.00;;;;;;5161271;22;20065;-64
2022/03/11 08:57:56;;;;;;;26.42;14.63;;;10.90;59.10;;;;;;5161231;22;19997;-64
2022/03/11 08:59:57;;;;;;;27.45;14.63;;;10.90;59.00;;;;;;5162453;22;20058;-64
2022/03/11 09:01:57;;;;;;;22.25;14.10;;;11.00;58.80;;;;;;5160928;22;20020;-64
2022/03/11 09:03:58;;;;;;;23.17;14.30;;;10.80;57.90;;;;;;5161348;22;20012;-64
2022/03/11 09:05:58;;;;;;;21.63;12.95;;;10.90;58.40;;;;;;5160182;22;20028;-64
2022/03/11 09:07:59;;;;;;;25.10;13.82;;;11.00;59.40;;;;;;5159634;23;20094;-64
2022/03/11 09:10:01;;;;;;;24.73;14.43;;;11.10;59.10;;;;;;5159786;22;20008;-64
2022/03/11 09:12:02;;;;;;;24.25;15.05;;;11.00;58.50;;;;;;5161604;22;20008;-64
2022/03/11 09:14:03;;;;;;;24.23;13.73;;;10.90;58.60;;;;;;5162297;22;20012;-65
2022/03/11 09:16:04;;;;;;;21.92;13.70;;;11.00;58.80;;;;;;5162545;22;20046;-64
2022/03/11 09:18:05;;;;;;;26.60;13.93;;;11.10;59.50;;;;;;5134415;23;20009;-63
2022/03/11 09:20:06;;;;;;;26.95;13.82;;;11.10;58.70;;;;;;5161811;22;20011;-65
2022/03/11 09:22:07;;;;;;;23.33;14.52;;;11.00;58.40;;;;;;5162124;22;20012;-63
2022/03/11 09:24:08;;;;;;;26.17;14.15;;;11.10;58.20;;;;;;5163490;22;20051;-64
2022/03/11 09:26:09;;;;;;;28.33;16.08;;;11.10;58.50;;;;;;5162903;22;20070;-64
2022/03/11 09:28:10;;;;;;;28.70;14.77;;;11.10;58.10;;;;;;5162400;22;20105;-64
2022/03/11 09:30:12;;;;;;;25.80;14.23;;;11.10;58.30;;;;;;5161216;22;20008;-65
2022/03/11 09:32:12;;;;;;;23.65;14.82;;;11.10;58.50;;;;;;5163106;22;20262;-64
2022/03/11 09:34:13;;;;;;;26.08;15.88;;;11.20;59.60;;;;;;5163303;22;20016;-64
2022/03/11 09:36:14;;;;;;;25.88;14.10;;;11.20;58.20;;;;;;5160271;23;20015;-64
2022/03/11 09:38:15;;;;;;;24.15;13.93;;;11.30;59.00;;;;;;5162778;22;20514;-64
2022/03/11 09:40:16;;;;;;;23.92;14.23;;;11.50;59.00;;;;;;5160636;22;20012;-64
2022/03/11 09:42:16;;;;;;;28.30;15.35;;;11.60;59.40;;;;;;5161837;22;20008;-64
2022/03/11 09:44:19;;;;;;;23.63;14.25;;;11.40;57.30;;;;;;5162455;22;20107;-63
2022/03/11 09:46:20;;;;;;;23.35;14.48;;;11.40;57.40;;;;;;5161419;22;20337;-64
2022/03/11 09:48:21;;;;;;;29.48;15.18;;;11.50;57.60;;;;;;5162612;22;20515;-64
2022/03/11 09:50:21;;;;;;;22.30;13.75;;;11.20;57.30;;;;;;5160461;22;20008;-64
2022/03/11 09:52:23;;;;;;;24.50;14.52;;;11.40;57.90;;;;;;5162521;22;20424;-63
2022/03/11 09:54:24;;;;;;;27.83;14.60;;;11.40;57.60;;;;;;5163015;22;20009;-64
2022/03/11 09:56:25;;;;;;;32.53;15.35;;;11.60;58.60;;;;;;5161997;22;20417;-64
2022/03/11 09:58:25;;;;;;;23.35;14.27;;;11.60;57.90;;;;;;5163556;22;20340;-64
2022/03/11 10:00:26;;;;;;;22.45;13.82;;;11.60;57.50;;;;;;5160240;22;20028;-64
2022/03/11 10:02:27;;;;;;;24.95;14.45;;;11.70;57.60;;;;;;5161989;22;20124;-64
2022/03/11 10:04:27;;;;;;;24.27;13.82;;;11.70;58.00;;;;;;5162892;22;20016;-64
2022/03/11 10:06:39;;;;;;;22.40;14.20;;;11.80;57.80;;;;;;5161961;22;20016;-64
2022/03/11 10:08:44;;;;;;;21.88;13.85;;;11.80;57.80;;;;;;5162254;22;20012;-64
2022/03/11 10:10:44;;;;;;;21.65;13.70;;;11.80;57.10;;;;;;5161719;22;20044;-64
2022/03/11 10:12:46;;;;;;;24.00;14.40;;;11.80;57.00;;;;;;5163380;22;20009;-64
2022/03/11 10:14:56;;;;;;;25.48;14.27;;;11.80;57.30;;;;;;5163090;22;20028;-64
2022/03/11 10:16:58;;;;;;;24.45;14.55;;;11.80;57.10;;;;;;5161506;22;20008;-64
2022/03/11 10:19:07;;;;;;;25.10;14.85;;;11.80;57.30;;;;;;5162911;22;20066;-64
2022/03/11 10:21:08;;;;;;;25.75;14.05;;;11.80;57.30;;;;;;5160276;22;20012;-64
2022/03/11 10:23:11;;;;;;;22.67;13.95;;;11.90;57.40;;;;;;5163460;22;20036;-64
2022/03/11 10:25:20;;;;;;;24.10;15.13;;;12.00;57.00;;;;;;5162186;22;20012;-65